sensor_id;sensor_type;location;lat;lon;timestamp;P1;durP1;ratioP1;P2;durP2;ratioP2
8656;SDS011;4366;50.764;7.184;2023-08-07T00:03:55;3.63;;;1.50;;
8656;SDS011;4366;50.764;7.184;2023-08-07T00:08:57;2.33;;;1.30;;
8656;SDS011;4366;50.764;7.184;2023-08-07T00:13:59;2.93;;;1.40;;
8656;SDS011;4366;50.764;7.184;2023-08-07T00:19:02;2.37;;;1.60;;
8656;SDS011;4366;50.764;7.184;2023-08-07T00:24:04;2.60;;;1.60;;
8656;SDS011;4366;50.764;7.184;2023-08-07T00:29:06;1.30;;;1.20;;
8656;SDS011;4366;50.764;7.184;2023-08-07T00:34:08;1.83;;;1.63;;
8656;SDS011;4366;50.764;7.184;2023-08-07T00:39:11;2.63;;;1.30;;
8656;SDS011;4366;50.764;7.184;2023-08-07T00:44:14;4.33;;;1.57;;
8656;SDS011;4366;50.764;7.184;2023-08-07T00:49:15;2.10;;;1.83;;
8656;SDS011;4366;50.764;7.184;2023-08-07T00:54:18;4.10;;;1.60;;
8656;SDS011;4366;50.764;7.184;2023-08-07T00:59:21;3.97;;;1.80;;
8656;SDS011;4366;50.764;7.184;2023-08-07T01:04:23;4.17;;;1.50;;
8656;SDS011;4366;50.764;7.184;2023-08-07T01:09:24;3.07;;;1.50;;
8656;SDS011;4366;50.764;7.184;2023-08-07T01:19:50;4.53;;;1.60;;
8656;SDS011;4366;50.764;7.184;2023-08-07T01:24:53;1.50;;;1.20;;
8656;SDS011;4366;50.764;7.184;2023-08-07T01:29:58;1.70;;;1.60;;
8656;SDS011;4366;50.764;7.184;2023-08-07T01:35:04;3.33;;;1.77;;
8656;SDS011;4366;50.764;7.184;2023-08-07T01:40:11;2.37;;;1.60;;
8656;SDS011;4366;50.764;7.184;2023-08-07T01:45:13;1.57;;;1.47;;
8656;SDS011;4366;50.764;7.184;2023-08-07T01:50:15;2.20;;;1.97;;
8656;SDS011;4366;50.764;7.184;2023-08-07T01:55:17;2.70;;;1.40;;
8656;SDS011;4366;50.764;7.184;2023-08-07T02:00:26;5.60;;;1.73;;
8656;SDS011;4366;50.764;7.184;2023-08-07T02:05:27;3.80;;;1.67;;
8656;SDS011;4366;50.764;7.184;2023-08-07T02:10:29;2.80;;;1.70;;
8656;SDS011;4366;50.764;7.184;2023-08-07T02:15:32;1.77;;;1.60;;
8656;SDS011;4366;50.764;7.184;2023-08-07T02:20:36;1.67;;;1.57;;
8656;SDS011;4366;50.764;7.184;2023-08-07T02:25:37;1.70;;;1.50;;
8656;SDS011;4366;50.764;7.184;2023-08-07T02:30:39;2.17;;;1.70;;
8656;SDS011;4366;50.764;7.184;2023-08-07T02:35:41;1.40;;;1.30;;
8656;SDS011;4366;50.764;7.184;2023-08-07T02:40:43;1.80;;;1.63;;
8656;SDS011;4366;50.764;7.184;2023-08-07T02:45:45;2.43;;;1.80;;
8656;SDS011;4366;50.764;7.184;2023-08-07T02:50:46;2.37;;;1.70;;
8656;SDS011;4366;50.764;7.184;2023-08-07T02:55:48;2.00;;;1.20;;
8656;SDS011;4366;50.764;7.184;2023-08-07T03:00:50;1.40;;;1.30;;
8656;SDS011;4366;50.764;7.184;2023-08-07T03:05:58;4.43;;;1.93;;
8656;SDS011;4366;50.764;7.184;2023-08-07T03:11:00;4.70;;;1.60;;
8656;SDS011;4366;50.764;7.184;2023-08-07T03:16:02;1.43;;;1.33;;
8656;SDS011;4366;50.764;7.184;2023-08-07T03:21:05;1.87;;;1.67;;
8656;SDS011;4366;50.764;7.184;2023-08-07T03:26:08;3.10;;;2.13;;
8656;SDS011;4366;50.764;7.184;2023-08-07T03:31:15;2.13;;;1.43;;
8656;SDS011;4366;50.764;7.184;2023-08-07T03:36:17;2.10;;;1.77;;
8656;SDS011;4366;50.764;7.184;2023-08-07T03:41:19;5.00;;;2.10;;
8656;SDS011;4366;50.764;7.184;2023-08-07T03:46:21;3.43;;;1.80;;
8656;SDS011;4366;50.764;7.184;2023-08-07T03:51:23;3.03;;;1.83;;
8656;SDS011;4366;50.764;7.184;2023-08-07T03:56:27;2.30;;;1.60;;
8656;SDS011;4366;50.764;7.184;2023-08-07T04:01:30;2.17;;;1.70;;
8656;SDS011;4366;50.764;7.184;2023-08-07T04:06:31;2.00;;;1.90;;
8656;SDS011;4366;50.764;7.184;2023-08-07T04:11:33;3.50;;;1.53;;
8656;SDS011;4366;50.764;7.184;2023-08-07T04:16:35;2.93;;;1.60;;
8656;SDS011;4366;50.764;7.184;2023-08-07T04:21:38;2.10;;;1.73;;
8656;SDS011;4366;50.764;7.184;2023-08-07T04:26:40;1.40;;;1.30;;
8656;SDS011;4366;50.764;7.184;2023-08-07T04:31:41;3.13;;;1.90;;
8656;SDS011;4366;50.764;7.184;2023-08-07T04:36:43;2.47;;;1.63;;
8656;SDS011;4366;50.764;7.184;2023-08-07T04:41:45;1.80;;;1.70;;
8656;SDS011;4366;50.764;7.184;2023-08-07T04:46:46;4.77;;;1.80;;
8656;SDS011;4366;50.764;7.184;2023-08-07T04:51:48;1.63;;;1.53;;
8656;SDS011;4366;50.764;7.184;2023-08-07T04:56:49;1.63;;;1.53;;
8656;SDS011;4366;50.764;7.184;2023-08-07T05:01:52;3.73;;;1.80;;
8656;SDS011;4366;50.764;7.184;2023-08-07T05:06:54;2.40;;;2.00;;
8656;SDS011;4366;50.764;7.184;2023-08-07T05:11:56;1.83;;;1.67;;
8656;SDS011;4366;50.764;7.184;2023-08-07T05:16:58;2.20;;;2.07;;
8656;SDS011;4366;50.764;7.184;2023-08-07T05:22:01;3.50;;;1.83;;
8656;SDS011;4366;50.764;7.184;2023-08-07T05:27:02;3.43;;;1.67;;
8656;SDS011;4366;50.764;7.184;2023-08-07T05:32:04;3.33;;;2.97;;
8656;SDS011;4366;50.764;7.184;2023-08-07T05:37:07;2.50;;;1.53;;
8656;SDS011;4366;50.764;7.184;2023-08-07T05:42:09;1.60;;;1.50;;
8656;SDS011;4366;50.764;7.184;2023-08-07T05:47:11;4.33;;;1.70;;
8656;SDS011;4366;50.764;7.184;2023-08-07T05:52:14;3.30;;;1.40;;
8656;SDS011;4366;50.764;7.184;2023-08-07T05:57:15;2.13;;;1.63;;
8656;SDS011;4366;50.764;7.184;2023-08-07T06:02:19;4.33;;;1.67;;
8656;SDS011;4366;50.764;7.184;2023-08-07T06:07:21;3.03;;;1.60;;
8656;SDS011;4366;50.764;7.184;2023-08-07T06:12:22;3.63;;;1.97;;
8656;SDS011;4366;50.764;7.184;2023-08-07T06:17:24;2.60;;;1.40;;
8656;SDS011;4366;50.764;7.184;2023-08-07T06:22:26;1.77;;;1.57;;
8656;SDS011;4366;50.764;7.184;2023-08-07T06:27:27;1.67;;;1.30;;
8656;SDS011;4366;50.764;7.184;2023-08-07T06:32:29;4.00;;;1.50;;
8656;SDS011;4366;50.764;7.184;2023-08-07T06:37:31;2.10;;;1.67;;
8656;SDS011;4366;50.764;7.184;2023-08-07T06:42:33;2.40;;;1.50;;
8656;SDS011;4366;50.764;7.184;2023-08-07T06:47:34;1.73;;;1.50;;
8656;SDS011;4366;50.764;7.184;2023-08-07T06:52:37;1.97;;;1.77;;
8656;SDS011;4366;50.764;7.184;2023-08-07T06:57:39;3.37;;;1.73;;
8656;SDS011;4366;50.764;7.184;2023-08-07T07:02:41;1.60;;;1.50;;
8656;SDS011;4366;50.764;7.184;2023-08-07T07:07:43;1.60;;;1.50;;
8656;SDS011;4366;50.764;7.184;2023-08-07T07:12:45;2.87;;;1.90;;
8656;SDS011;4366;50.764;7.184;2023-08-07T07:17:46;2.87;;;1.70;;
8656;SDS011;4366;50.764;7.184;2023-08-07T07:22:48;1.90;;;1.53;;
8656;SDS011;4366;50.764;7.184;2023-08-07T07:27:50;3.03;;;1.40;;
8656;SDS011;4366;50.764;7.184;2023-08-07T07:32:51;5.13;;;1.90;;
8656;SDS011;4366;50.764;7.184;2023-08-07T07:37:53;1.77;;;1.67;;
8656;SDS011;4366;50.764;7.184;2023-08-07T07:42:55;2.40;;;1.70;;
8656;SDS011;4366;50.764;7.184;2023-08-07T07:47:57;3.87;;;1.90;;
8656;SDS011;4366;50.764;7.184;2023-08-07T07:52:58;1.70;;;1.53;;
8656;SDS011;4366;50.764;7.184;2023-08-07T07:58:00;1.70;;;1.60;;
8656;SDS011;4366;50.764;7.184;2023-08-07T08:03:02;1.80;;;1.70;;
8656;SDS011;4366;50.764;7.184;2023-08-07T08:08:04;2.13;;;1.47;;
8656;SDS011;4366;50.764;7.184;2023-08-07T08:13:08;1.73;;;1.63;;
8656;SDS011;4366;50.764;7.184;2023-08-07T08:18:10;2.13;;;1.83;;
8656;SDS011;4366;50.764;7.184;2023-08-07T08:23:12;1.73;;;1.50;;
8656;SDS011;4366;50.764;7.184;2023-08-07T08:28:14;2.40;;;1.40;;
8656;SDS011;4366;50.764;7.184;2023-08-07T08:33:16;2.73;;;1.63;;
8656;SDS011;4366;50.764;7.184;2023-08-07T08:38:18;2.13;;;1.57;;
8656;SDS011;4366;50.764;7.184;2023-08-07T08:43:22;2.40;;;1.67;;
8656;SDS011;4366;50.764;7.184;2023-08-07T08:48:25;3.03;;;1.50;;
8656;SDS011;4366;50.764;7.184;2023-08-07T08:53:27;2.10;;;1.80;;
8656;SDS011;4366;50.764;7.184;2023-08-07T08:58:29;3.23;;;2.03;;
8656;SDS011;4366;50.764;7.184;2023-08-07T09:03:31;2.67;;;1.60;;
8656;SDS011;4366;50.764;7.184;2023-08-07T09:08:32;3.67;;;1.50;;
8656;SDS011;4366;50.764;7.184;2023-08-07T09:13:36;3.83;;;1.60;;
8656;SDS011;4366;50.764;7.184;2023-08-07T09:18:39;1.70;;;1.60;;
8656;SDS011;4366;50.764;7.184;2023-08-07T09:23:41;2.57;;;1.50;;
8656;SDS011;4366;50.764;7.184;2023-08-07T09:28:43;1.60;;;1.50;;
8656;SDS011;4366;50.764;7.184;2023-08-07T09:33:46;2.70;;;1.73;;
8656;SDS011;4366;50.764;7.184;2023-08-07T09:38:51;3.50;;;1.50;;
8656;SDS011;4366;50.764;7.184;2023-08-07T09:43:53;1.50;;;1.40;;
8656;SDS011;4366;50.764;7.184;2023-08-07T09:48:57;2.63;;;1.93;;
8656;SDS011;4366;50.764;7.184;2023-08-07T09:53:59;1.93;;;1.30;;
8656;SDS011;4366;50.764;7.184;2023-08-07T09:59:01;2.70;;;1.40;;
8656;SDS011;4366;50.764;7.184;2023-08-07T10:04:03;1.83;;;1.27;;
8656;SDS011;4366;50.764;7.184;2023-08-07T10:09:07;1.43;;;1.20;;
8656;SDS011;4366;50.764;7.184;2023-08-07T10:14:10;1.53;;;1.43;;
8656;SDS011;4366;50.764;7.184;2023-08-07T10:19:14;2.03;;;1.20;;
8656;SDS011;4366;50.764;7.184;2023-08-07T10:24:16;1.50;;;1.40;;
8656;SDS011;4366;50.764;7.184;2023-08-07T10:29:18;2.57;;;1.50;;
8656;SDS011;4366;50.764;7.184;2023-08-07T10:34:22;1.40;;;1.30;;
8656;SDS011;4366;50.764;7.184;2023-08-07T10:39:23;1.30;;;1.20;;
8656;SDS011;4366;50.764;7.184;2023-08-07T10:44:27;1.87;;;1.47;;
8656;SDS011;4366;50.764;7.184;2023-08-07T10:49:35;2.10;;;1.67;;
8656;SDS011;4366;50.764;7.184;2023-08-07T10:54:39;3.00;;;1.50;;
8656;SDS011;4366;50.764;7.184;2023-08-07T10:59:50;2.00;;;1.47;;
8656;SDS011;4366;50.764;7.184;2023-08-07T11:04:53;2.10;;;1.40;;
8656;SDS011;4366;50.764;7.184;2023-08-07T11:09:55;3.80;;;1.10;;
8656;SDS011;4366;50.764;7.184;2023-08-07T11:14:59;1.30;;;1.20;;
8656;SDS011;4366;50.764;7.184;2023-08-07T11:20:02;1.53;;;1.30;;
8656;SDS011;4366;50.764;7.184;2023-08-07T11:25:04;3.23;;;1.17;;
8656;SDS011;4366;50.764;7.184;2023-08-07T11:30:10;1.33;;;1.20;;
8656;SDS011;4366;50.764;7.184;2023-08-07T11:35:13;1.40;;;1.20;;
8656;SDS011;4366;50.764;7.184;2023-08-07T11:40:14;1.20;;;1.10;;
8656;SDS011;4366;50.764;7.184;2023-08-07T11:45:17;1.27;;;1.27;;
8656;SDS011;4366;50.764;7.184;2023-08-07T11:50:19;1.53;;;1.43;;
8656;SDS011;4366;50.764;7.184;2023-08-07T11:55:20;1.27;;;1.03;;
8656;SDS011;4366;50.764;7.184;2023-08-07T12:00:24;2.30;;;1.07;;
8656;SDS011;4366;50.764;7.184;2023-08-07T12:05:28;1.23;;;1.07;;
8656;SDS011;4366;50.764;7.184;2023-08-07T12:10:39;1.20;;;1.10;;
8656;SDS011;4366;50.764;7.184;2023-08-07T12:15:42;1.23;;;1.03;;
8656;SDS011;4366;50.764;7.184;2023-08-07T12:20:44;0.90;;;0.90;;
8656;SDS011;4366;50.764;7.184;2023-08-07T12:25:45;1.03;;;0.87;;
8656;SDS011;4366;50.764;7.184;2023-08-07T12:30:47;2.70;;;1.20;;
8656;SDS011;4366;50.764;7.184;2023-08-07T12:35:49;1.33;;;1.20;;
8656;SDS011;4366;50.764;7.184;2023-08-07T12:40:51;0.90;;;0.90;;
8656;SDS011;4366;50.764;7.184;2023-08-07T12:45:53;1.13;;;1.10;;
8656;SDS011;4366;50.764;7.184;2023-08-07T12:51:15;1.07;;;1.03;;
8656;SDS011;4366;50.764;7.184;2023-08-07T12:56:18;1.07;;;0.97;;
8656;SDS011;4366;50.764;7.184;2023-08-07T13:01:19;1.40;;;0.90;;
8656;SDS011;4366;50.764;7.184;2023-08-07T13:06:22;1.00;;;0.90;;
8656;SDS011;4366;50.764;7.184;2023-08-07T13:11:23;1.90;;;1.00;;
8656;SDS011;4366;50.764;7.184;2023-08-07T13:16:26;0.80;;;0.80;;
8656;SDS011;4366;50.764;7.184;2023-08-07T13:21:28;1.50;;;1.13;;
8656;SDS011;4366;50.764;7.184;2023-08-07T13:26:29;2.47;;;1.33;;
8656;SDS011;4366;50.764;7.184;2023-08-07T13:31:31;1.00;;;1.00;;
8656;SDS011;4366;50.764;7.184;2023-08-07T13:36:33;1.77;;;1.57;;
8656;SDS011;4366;50.764;7.184;2023-08-07T13:41:37;1.43;;;1.27;;
8656;SDS011;4366;50.764;7.184;2023-08-07T13:46:38;1.83;;;1.23;;
8656;SDS011;4366;50.764;7.184;2023-08-07T13:51:41;1.23;;;1.20;;
8656;SDS011;4366;50.764;7.184;2023-08-07T13:56:42;1.80;;;1.03;;
8656;SDS011;4366;50.764;7.184;2023-08-07T14:01:44;1.73;;;1.27;;
8656;SDS011;4366;50.764;7.184;2023-08-07T14:06:46;1.00;;;1.00;;
8656;SDS011;4366;50.764;7.184;2023-08-07T14:11:48;1.30;;;1.20;;
8656;SDS011;4366;50.764;7.184;2023-08-07T14:16:50;1.57;;;1.33;;
8656;SDS011;4366;50.764;7.184;2023-08-07T14:21:52;2.23;;;1.17;;
8656;SDS011;4366;50.764;7.184;2023-08-07T14:26:55;1.67;;;1.30;;
8656;SDS011;4366;50.764;7.184;2023-08-07T14:31:57;1.37;;;1.27;;
8656;SDS011;4366;50.764;7.184;2023-08-07T14:36:59;1.57;;;1.47;;
8656;SDS011;4366;50.764;7.184;2023-08-07T14:42:01;1.70;;;1.60;;
8656;SDS011;4366;50.764;7.184;2023-08-07T14:47:03;2.50;;;1.50;;
8656;SDS011;4366;50.764;7.184;2023-08-07T14:52:05;2.00;;;1.43;;
8656;SDS011;4366;50.764;7.184;2023-08-07T14:57:07;2.83;;;1.63;;
8656;SDS011;4366;50.764;7.184;2023-08-07T15:02:08;2.80;;;1.47;;
8656;SDS011;4366;50.764;7.184;2023-08-07T15:07:11;1.90;;;1.40;;
8656;SDS011;4366;50.764;7.184;2023-08-07T15:12:13;2.23;;;1.60;;
8656;SDS011;4366;50.764;7.184;2023-08-07T15:17:15;0.83;;;0.83;;
8656;SDS011;4366;50.764;7.184;2023-08-07T15:22:17;1.70;;;1.23;;
8656;SDS011;4366;50.764;7.184;2023-08-07T15:27:19;2.27;;;1.30;;
8656;SDS011;4366;50.764;7.184;2023-08-07T15:32:21;1.40;;;1.30;;
8656;SDS011;4366;50.764;7.184;2023-08-07T15:37:22;1.83;;;1.13;;
8656;SDS011;4366;50.764;7.184;2023-08-07T15:42:24;1.30;;;1.20;;
8656;SDS011;4366;50.764;7.184;2023-08-07T15:47:26;1.83;;;1.20;;
8656;SDS011;4366;50.764;7.184;2023-08-07T15:52:27;1.47;;;1.37;;
8656;SDS011;4366;50.764;7.184;2023-08-07T15:57:31;2.00;;;1.20;;
8656;SDS011;4366;50.764;7.184;2023-08-07T16:02:33;1.27;;;1.17;;
8656;SDS011;4366;50.764;7.184;2023-08-07T16:07:35;1.30;;;1.20;;
8656;SDS011;4366;50.764;7.184;2023-08-07T16:12:36;0.87;;;0.83;;
8656;SDS011;4366;50.764;7.184;2023-08-07T16:17:38;1.30;;;1.20;;
8656;SDS011;4366;50.764;7.184;2023-08-07T16:22:40;1.00;;;0.90;;
8656;SDS011;4366;50.764;7.184;2023-08-07T16:27:42;0.90;;;0.70;;
8656;SDS011;4366;50.764;7.184;2023-08-07T16:32:43;0.87;;;0.87;;
8656;SDS011;4366;50.764;7.184;2023-08-07T16:37:45;1.53;;;1.10;;
8656;SDS011;4366;50.764;7.184;2023-08-07T16:42:47;1.93;;;0.90;;
8656;SDS011;4366;50.764;7.184;2023-08-07T16:47:49;0.60;;;0.60;;
8656;SDS011;4366;50.764;7.184;2023-08-07T16:52:50;0.70;;;0.70;;
8656;SDS011;4366;50.764;7.184;2023-08-07T16:57:53;1.13;;;0.93;;
8656;SDS011;4366;50.764;7.184;2023-08-07T17:02:55;1.17;;;0.90;;
8656;SDS011;4366;50.764;7.184;2023-08-07T17:07:56;0.90;;;0.90;;
8656;SDS011;4366;50.764;7.184;2023-08-07T17:12:58;1.03;;;0.80;;
8656;SDS011;4366;50.764;7.184;2023-08-07T17:18:01;1.83;;;0.83;;
8656;SDS011;4366;50.764;7.184;2023-08-07T17:23:04;0.90;;;0.90;;
8656;SDS011;4366;50.764;7.184;2023-08-07T17:28:06;1.00;;;1.00;;
8656;SDS011;4366;50.764;7.184;2023-08-07T17:33:07;1.10;;;1.00;;
8656;SDS011;4366;50.764;7.184;2023-08-07T17:38:09;0.87;;;0.87;;
8656;SDS011;4366;50.764;7.184;2023-08-07T17:43:11;0.70;;;0.70;;
8656;SDS011;4366;50.764;7.184;2023-08-07T17:48:12;0.90;;;0.90;;
8656;SDS011;4366;50.764;7.184;2023-08-07T17:53:14;0.67;;;0.67;;
8656;SDS011;4366;50.764;7.184;2023-08-07T17:58:16;1.13;;;0.93;;
8656;SDS011;4366;50.764;7.184;2023-08-07T18:03:18;0.80;;;0.80;;
8656;SDS011;4366;50.764;7.184;2023-08-07T18:08:19;0.70;;;0.70;;
8656;SDS011;4366;50.764;7.184;2023-08-07T18:13:22;0.90;;;0.90;;
8656;SDS011;4366;50.764;7.184;2023-08-07T18:18:24;1.30;;;1.00;;
8656;SDS011;4366;50.764;7.184;2023-08-07T18:23:25;2.17;;;1.13;;
8656;SDS011;4366;50.764;7.184;2023-08-07T18:28:27;0.80;;;0.80;;
8656;SDS011;4366;50.764;7.184;2023-08-07T18:33:31;1.10;;;1.10;;
8656;SDS011;4366;50.764;7.184;2023-08-07T18:38:33;1.23;;;0.90;;
8656;SDS011;4366;50.764;7.184;2023-08-07T18:43:35;1.63;;;0.90;;
8656;SDS011;4366;50.764;7.184;2023-08-07T18:48:37;3.67;;;1.03;;
8656;SDS011;4366;50.764;7.184;2023-08-07T18:53:38;1.00;;;1.00;;
8656;SDS011;4366;50.764;7.184;2023-08-07T18:58:40;1.20;;;1.00;;
8656;SDS011;4366;50.764;7.184;2023-08-07T19:03:42;1.00;;;0.90;;
8656;SDS011;4366;50.764;7.184;2023-08-07T19:08:44;1.27;;;1.00;;
8656;SDS011;4366;50.764;7.184;2023-08-07T19:13:45;0.83;;;0.83;;
8656;SDS011;4366;50.764;7.184;2023-08-07T19:18:47;1.47;;;0.80;;
8656;SDS011;4366;50.764;7.184;2023-08-07T19:23:49;1.10;;;1.10;;
8656;SDS011;4366;50.764;7.184;2023-08-07T19:28:50;0.80;;;0.80;;
8656;SDS011;4366;50.764;7.184;2023-08-07T19:33:53;0.90;;;0.90;;
8656;SDS011;4366;50.764;7.184;2023-08-07T19:38:54;0.90;;;0.90;;
8656;SDS011;4366;50.764;7.184;2023-08-07T19:43:56;1.20;;;1.10;;
8656;SDS011;4366;50.764;7.184;2023-08-07T19:48:58;1.13;;;1.03;;
8656;SDS011;4366;50.764;7.184;2023-08-07T19:53:59;0.83;;;0.77;;
8656;SDS011;4366;50.764;7.184;2023-08-07T19:59:03;0.90;;;0.90;;
8656;SDS011;4366;50.764;7.184;2023-08-07T20:04:06;1.33;;;1.20;;
8656;SDS011;4366;50.764;7.184;2023-08-07T20:09:11;1.30;;;1.20;;
8656;SDS011;4366;50.764;7.184;2023-08-07T20:14:12;1.30;;;1.20;;
8656;SDS011;4366;50.764;7.184;2023-08-07T20:19:14;0.90;;;0.90;;
8656;SDS011;4366;50.764;7.184;2023-08-07T20:24:16;1.00;;;1.00;;
8656;SDS011;4366;50.764;7.184;2023-08-07T20:29:18;1.47;;;1.37;;
8656;SDS011;4366;50.764;7.184;2023-08-07T20:34:20;1.30;;;1.30;;
8656;SDS011;4366;50.764;7.184;2023-08-07T20:39:22;1.57;;;1.27;;
8656;SDS011;4366;50.764;7.184;2023-08-07T20:44:24;1.13;;;0.97;;
8656;SDS011;4366;50.764;7.184;2023-08-07T20:49:25;1.83;;;1.73;;
8656;SDS011;4366;50.764;7.184;2023-08-07T20:54:27;1.23;;;1.20;;
8656;SDS011;4366;50.764;7.184;2023-08-07T20:59:29;1.87;;;1.37;;
8656;SDS011;4366;50.764;7.184;2023-08-07T21:04:30;1.30;;;1.17;;
8656;SDS011;4366;50.764;7.184;2023-08-07T21:09:32;1.50;;;1.40;;
8656;SDS011;4366;50.764;7.184;2023-08-07T21:14:34;1.40;;;1.30;;
8656;SDS011;4366;50.764;7.184;2023-08-07T21:19:36;1.50;;;1.40;;
8656;SDS011;4366;50.764;7.184;2023-08-07T21:24:39;0.97;;;0.97;;
8656;SDS011;4366;50.764;7.184;2023-08-07T21:29:41;1.37;;;1.27;;
8656;SDS011;4366;50.764;7.184;2023-08-07T21:34:42;2.50;;;1.70;;
8656;SDS011;4366;50.764;7.184;2023-08-07T21:39:44;1.20;;;1.20;;
8656;SDS011;4366;50.764;7.184;2023-08-07T21:44:46;1.20;;;1.20;;
8656;SDS011;4366;50.764;7.184;2023-08-07T21:49:48;2.07;;;1.40;;
8656;SDS011;4366;50.764;7.184;2023-08-07T21:54:49;1.30;;;1.20;;
8656;SDS011;4366;50.764;7.184;2023-08-07T21:59:51;1.13;;;1.13;;
8656;SDS011;4366;50.764;7.184;2023-08-07T22:04:52;1.60;;;1.20;;
8656;SDS011;4366;50.764;7.184;2023-08-07T22:09:54;1.33;;;1.23;;
8656;SDS011;4366;50.764;7.184;2023-08-07T22:14:56;1.60;;;1.50;;
8656;SDS011;4366;50.764;7.184;2023-08-07T22:19:58;1.17;;;1.07;;
8656;SDS011;4366;50.764;7.184;2023-08-07T22:25:09;1.23;;;1.13;;
8656;SDS011;4366;50.764;7.184;2023-08-07T22:30:11;1.53;;;1.10;;
8656;SDS011;4366;50.764;7.184;2023-08-07T22:35:14;1.07;;;1.00;;
8656;SDS011;4366;50.764;7.184;2023-08-07T22:40:16;1.27;;;1.27;;
8656;SDS011;4366;50.764;7.184;2023-08-07T22:45:18;1.00;;;1.00;;
8656;SDS011;4366;50.764;7.184;2023-08-07T22:50:19;1.10;;;1.10;;
8656;SDS011;4366;50.764;7.184;2023-08-07T22:55:21;1.00;;;1.00;;
8656;SDS011;4366;50.764;7.184;2023-08-07T23:00:23;1.20;;;1.07;;
8656;SDS011;4366;50.764;7.184;2023-08-07T23:05:24;1.17;;;1.10;;
8656;SDS011;4366;50.764;7.184;2023-08-07T23:10:27;1.30;;;1.30;;
8656;SDS011;4366;50.764;7.184;2023-08-07T23:15:28;1.20;;;1.10;;
8656;SDS011;4366;50.764;7.184;2023-08-07T23:20:30;1.10;;;1.00;;
8656;SDS011;4366;50.764;7.184;2023-08-07T23:25:32;1.20;;;1.20;;
8656;SDS011;4366;50.764;7.184;2023-08-07T23:30:34;1.27;;;1.27;;
8656;SDS011;4366;50.764;7.184;2023-08-07T23:35:36;1.40;;;1.30;;
8656;SDS011;4366;50.764;7.184;2023-08-07T23:40:38;1.37;;;1.13;;
8656;SDS011;4366;50.764;7.184;2023-08-07T23:45:40;1.37;;;1.23;;
8656;SDS011;4366;50.764;7.184;2023-08-07T23:50:42;1.03;;;1.00;;
8656;SDS011;4366;50.764;7.184;2023-08-07T23:55:43;1.10;;;1.10;;
